San Jose, CA (95110)

12:54 PM PDT on September 02, 2014 (GMT -0700)
San Jose Plant51 | Change Station
CLOSE
Current Station
Personal Weather Station
Location: San Jose, CA
Elevation: 102 ft
Nearby Weather Stations

Elev 102 ft 37.33 °N, 121.90 °W | Updated 13 seconds ago

Clear
Clear
78.7 °F
Feels Like 80 °F
N
4.0
Wind Variable Wind from NW
Gusts 11.0 mph

Today
High -- | Low -- °F
--% Chance of Precip.
Yesterday
High -- | Low -- °F
Precip. -- in
6:38 AM 7:34 PM
First Quarter, 54% visible
Pressure 29.84 in
Visibility 10.0 miles
Clouds Clear
Heat Index 80 °F
Dew Point 58 °F
Humidity 49%
Rainfall 0.00 in
Snow Depth Not available.
UV 9 out of 12
Pollen 7.30 out of 12
PM2.5 Good
Flu Activity Not available.
METAR KSJC 021853Z 23003KT 10SM CLR 24/13 A2984 RMK AO2 SLP104 T02390133

More Conditions Fewer Conditions

Pressure 29.84 in
Visibility 10.0 miles
Clouds Clear
Heat Index 80 °F
Dew Point 58 °F
Humidity 49%
Rainfall 0.00 in
Snow Depth Not available.
UV 9 out of 12
Pollen 7.30 out of 12
PM2.5 Good
Flu Activity Not available.
METAR KSJC 021853Z 23003KT 10SM CLR 24/13 A2984 RMK AO2 SLP104 T02390133

More Conditions Fewer Conditions

10-Day Weather Forecast

Almanac

Astronomy

Sep. 02, 2014 Rise Set
Actual Time 6:38 AM PDT 7:34 PM PDT
Civil Twilight 6:12 AM PDT 8:01 PM PDT
Nautical Twilight 5:40 AM PDT 8:32 PM PDT
Astronomical Twilight 5:08 AM PDT 9:05 PM PDT
Moon 2:19 PM PDT No Moon Set
Length of Visible Light 13h 49m
Length of Day
12h 55m
Tomorrow will be 2m 18s shorter.
First Quarter, 54% of the Moon is Illuminated
Today
First Quarter
Sep 8
Full
Sep 15
Last Quarter
Sep 24
New
Oct 1
First Quarter

Today's Extremes

State Highs State Lows

Community

WunderPhotos

Upload Photos

1,749,751 photos uploaded!

WunderBlogs® & News

By Dr. Jeff Masters
Director of Meteorology, Weather Underground
By Kari Strenfel
Meteorologist, Weather Underground
By Christopher C. Burt
Weather Historian, Weather Underground
September 2, 2014
September 2, 2014
September 2, 2014

Nearby

Air Quality

  Air Quality AQ Index Pollutant
Yesterday Good
OZONE
Yesterday Good
PM2.5
Current Good
PM2.5
Tuesday Good
OZONE
Wednesday Good
OZONE
Thursday Good
OZONE
Friday Good
OZONE
Saturday Good
OZONE
Sunday Good
OZONE

Snow Depth

Station Depth Elevation
Leavitt Meadows 0 in 7200 ft
Summit Meadow 0 in 9122 ft
CSS Lab 0 in 6900 ft
Adin Mountain 0 in 6200 ft

Earthquake Activity

City Distance Mag. Time & Date
Cobb, California 112 miles 2.5 12:00 PM PDT
2014-09-02
Yountville, California 75 miles 2.6 1:15 PM PDT
2014-09-01
Gilroy, California 34 miles 3.5 9:10 AM PDT
2014-09-01
Green Valley, California 64 miles 2.5 6:37 AM PDT
2014-08-31
Minimum magnitude displayed is 2.5.

Coastal Water Temperatures

Place Temperature
No Stations Reporting

Nearby Weather Stations